Time;durP1;ratioP1;P1;durP2;ratioP2;P2;SDS_P1;SDS_P2;PMS_P1;PMS_P2;Temp;Humidity;BMP_temperature;BMP_pressure;BME280_temperature;BME280_humidity;BME280_pressure;Samples;Min_cycle;Max_cycle;Signal;HPM_P1;HPM_P2
2022/03/23 00:01:09;;;;;;;2.13;2.03;;;0.80;99.90;;;;;;5055915;28;20220;-68
2022/03/23 00:03:37;;;;;;;2.25;2.15;;;0.80;99.90;;;;;;5060559;28;20201;-68
2022/03/23 00:06:06;;;;;;;2.20;2.10;;;0.80;99.90;;;;;;5056230;28;20200;-68
2022/03/23 00:08:32;;;;;;;2.22;2.13;;;0.80;99.90;;;;;;5055547;28;20224;-68
2022/03/23 00:10:59;;;;;;;2.58;2.47;;;0.70;99.90;;;;;;5054167;28;20296;-68
2022/03/23 00:13:27;;;;;;;2.28;2.17;;;0.70;99.90;;;;;;5054077;28;20201;-68
2022/03/23 00:15:54;;;;;;;2.30;2.20;;;0.70;99.90;;;;;;5054153;28;20228;-68
2022/03/23 00:18:21;;;;;;;2.70;2.50;;;0.70;99.90;;;;;;5053887;28;20304;-68
2022/03/23 00:20:48;;;;;;;2.28;2.17;;;0.70;99.90;;;;;;5053873;28;20581;-68
2022/03/23 00:23:16;;;;;;;2.50;2.40;;;0.70;99.90;;;;;;5054408;28;20231;-68
2022/03/23 00:25:43;;;;;;;1.98;1.90;;;0.70;99.90;;;;;;5054217;28;20207;-68
2022/03/23 00:28:10;;;;;;;2.17;2.08;;;0.70;99.90;;;;;;5055019;28;20221;-68
2022/03/23 00:30:37;;;;;;;2.65;2.45;;;0.60;99.90;;;;;;5056146;28;20234;-69
2022/03/23 00:33:04;;;;;;;2.70;2.47;;;0.60;99.90;;;;;;5053813;28;20259;-69
2022/03/23 00:35:31;;;;;;;2.65;2.30;;;0.60;99.90;;;;;;5054058;28;20197;-69
2022/03/23 00:37:59;;;;;;;2.67;2.58;;;0.50;99.90;;;;;;5053940;28;20263;-69
2022/03/23 00:40:29;;;;;;;2.35;2.25;;;0.50;99.90;;;;;;5053639;28;20767;-68
2022/03/23 00:42:58;;;;;;;2.40;2.30;;;0.40;99.90;;;;;;5053638;28;20197;-69
2022/03/23 00:45:25;;;;;;;2.83;2.63;;;0.40;99.90;;;;;;5053860;28;20211;-68
2022/03/23 00:47:52;;;;;;;2.72;2.53;;;0.30;99.90;;;;;;5054254;28;20303;-67
2022/03/23 00:50:19;;;;;;;2.55;2.40;;;0.30;99.90;;;;;;5054428;28;20268;-67
2022/03/23 00:52:47;;;;;;;2.47;2.28;;;0.20;99.90;;;;;;5053683;28;20232;-68
2022/03/23 00:55:15;;;;;;;2.95;2.75;;;0.20;99.90;;;;;;5053713;28;20323;-67
2022/03/23 00:57:43;;;;;;;2.80;2.70;;;0.20;99.90;;;;;;5053643;28;20223;-67
2022/03/23 01:00:13;;;;;;;3.38;3.08;;;0.10;99.90;;;;;;5053627;28;20217;-67
2022/03/23 01:02:40;;;;;;;3.08;2.92;;;0.10;99.90;;;;;;5053626;28;20200;-68
2022/03/23 01:05:09;;;;;;;3.80;3.55;;;0.10;99.90;;;;;;5052870;28;20201;-68
2022/03/23 01:07:36;;;;;;;3.15;2.95;;;0.10;99.90;;;;;;5052939;28;20221;-68
2022/03/23 01:10:03;;;;;;;2.83;2.63;;;0.00;99.90;;;;;;5015137;28;1098509;-67
2022/03/23 01:12:30;;;;;;;3.25;2.95;;;0.00;99.90;;;;;;5054272;28;20243;-67
2022/03/23 01:14:59;;;;;;;2.58;2.47;;;0.00;99.90;;;;;;5054006;28;20672;-67
2022/03/23 01:17:26;;;;;;;2.70;2.50;;;0.00;99.90;;;;;;5054740;28;20254;-67
2022/03/23 01:19:54;;;;;;;2.33;2.20;;;-0.10;99.90;;;;;;5053738;28;20200;-67
2022/03/23 01:22:21;;;;;;;2.88;2.67;;;-0.10;99.90;;;;;;5053819;28;20205;-67
2022/03/23 01:24:48;;;;;;;2.38;2.20;;;0.00;99.90;;;;;;5054094;28;20283;-68
2022/03/23 01:27:15;;;;;;;2.58;2.47;;;-0.10;99.90;;;;;;5053569;28;20270;-68
2022/03/23 01:29:42;;;;;;;2.80;2.60;;;-0.10;99.90;;;;;;5053886;28;20201;-67
2022/03/23 05:12:45;;;;;;;3.47;3.22;;;-1.40;99.90;;;;;;5904649;22;20228;-70
2022/03/23 05:15:13;;;;;;;3.20;3.00;;;-1.40;99.90;;;;;;5053743;28;20547;-70
2022/03/23 05:17:41;;;;;;;3.65;3.35;;;-1.40;99.90;;;;;;5053886;28;20211;-70
2022/03/23 05:20:10;;;;;;;4.28;3.00;;;-1.40;99.90;;;;;;5054078;28;20196;-70
2022/03/23 05:22:37;;;;;;;3.20;3.00;;;-1.50;99.90;;;;;;5054055;28;20235;-69
2022/03/23 05:25:05;;;;;;;3.65;3.45;;;-1.40;99.90;;;;;;5054045;28;20204;-69
2022/03/23 05:27:34;;;;;;;3.15;2.95;;;-1.40;99.90;;;;;;5054493;28;20235;-70
2022/03/23 05:30:04;;;;;;;3.33;3.03;;;-1.40;99.90;;;;;;5053874;28;20208;-70
2022/03/23 05:32:31;;;;;;;3.75;3.45;;;-1.40;99.90;;;;;;5053808;28;20227;-70
2022/03/23 05:34:58;;;;;;;3.70;3.40;;;-1.40;99.90;;;;;;5053889;28;20218;-70
2022/03/23 05:37:24;;;;;;;3.42;3.22;;;-1.30;99.90;;;;;;5053846;28;20207;-70
2022/03/23 05:39:51;;;;;;;3.40;3.20;;;-1.30;99.90;;;;;;5053807;28;20228;-70
2022/03/23 05:42:18;;;;;;;3.13;2.92;;;-1.30;99.90;;;;;;5053631;28;20234;-70
2022/03/23 05:44:45;;;;;;;4.10;3.80;;;-1.20;99.90;;;;;;5053494;28;20541;-70
2022/03/23 05:47:14;;;;;;;5.93;4.20;;;-1.20;99.90;;;;;;5053653;28;20200;-71
2022/03/23 05:49:41;;;;;;;5.07;4.57;;;-1.10;99.90;;;;;;5053619;28;20206;-71
2022/03/23 05:52:08;;;;;;;4.15;3.75;;;-0.90;99.90;;;;;;5053082;28;20250;-70
2022/03/23 05:54:35;;;;;;;5.13;4.63;;;-0.60;99.90;;;;;;5053391;28;20205;-70
2022/03/23 05:57:03;;;;;;;4.65;4.25;;;-0.30;99.90;;;;;;5057939;28;20733;-70
2022/03/23 05:59:30;;;;;;;4.93;4.53;;;0.10;99.90;;;;;;5070198;28;20224;-70
2022/03/23 06:01:57;;;;;;;5.43;4.63;;;0.40;99.90;;;;;;5055507;28;20311;-70
2022/03/23 06:04:25;;;;;;;5.93;5.13;;;0.90;99.90;;;;;;5053452;28;20223;-69
2022/03/23 06:06:52;;;;;;;5.28;4.78;;;1.50;99.90;;;;;;5053144;28;20291;-69
2022/03/23 06:09:19;;;;;;;6.65;5.63;;;2.10;99.90;;;;;;5053519;28;20203;-71
2022/03/23 06:11:47;;;;;;;6.50;4.93;;;2.60;99.90;;;;;;5053225;28;20201;-71
2022/03/23 06:14:14;;;;;;;5.20;4.75;;;3.00;99.90;;;;;;5053040;28;20229;-70
2022/03/23 06:16:41;;;;;;;5.13;4.63;;;3.60;99.90;;;;;;5053292;28;20204;-70
2022/03/23 06:19:09;;;;;;;5.07;4.57;;;4.10;99.90;;;;;;5053272;28;20210;-67
2022/03/23 06:21:37;;;;;;;5.45;4.95;;;4.80;99.90;;;;;;5053283;28;20266;-69
2022/03/23 06:24:04;;;;;;;5.65;5.07;;;5.50;98.30;;;;;;5053472;28;20596;-69
2022/03/23 06:26:31;;;;;;;6.07;5.57;;;5.80;90.70;;;;;;5053343;28;20211;-69
2022/03/23 06:28:58;;;;;;;5.90;5.38;;;6.00;83.30;;;;;;5052942;28;20295;-68
2022/03/23 06:31:24;;;;;;;6.50;5.90;;;6.40;82.40;;;;;;5053421;28;20279;-69
2022/03/23 06:33:51;;;;;;;5.78;5.28;;;7.00;80.60;;;;;;5053287;28;20230;-69
2022/03/23 06:36:18;;;;;;;6.65;5.78;;;8.20;79.60;;;;;;5053170;28;20205;-69
2022/03/23 06:38:48;;;;;;;6.78;6.07;;;9.30;63.20;;;;;;5053104;28;20209;-69
2022/03/23 06:41:15;;;;;;;6.20;4.72;;;10.40;54.10;;;;;;5052894;28;20224;-69
2022/03/23 06:43:41;;;;;;;6.22;5.63;;;10.60;48.50;;;;;;5052874;28;20263;-70
2022/03/23 06:46:08;;;;;;;8.13;6.65;;;10.60;48.20;;;;;;5053136;28;20283;-70
2022/03/23 06:48:36;;;;;;;7.82;6.70;;;10.70;47.30;;;;;;5053115;28;20296;-69
2022/03/23 06:51:03;;;;;;;7.68;6.88;;;10.90;47.60;;;;;;5052832;28;20201;-69
2022/03/23 06:53:30;;;;;;;7.55;5.97;;;11.90;46.40;;;;;;5052661;28;20730;-69
2022/03/23 06:55:58;;;;;;;6.70;6.03;;;13.20;44.40;;;;;;5052937;28;20296;-70
2022/03/23 06:58:25;;;;;;;6.07;5.47;;;14.50;42.70;;;;;;5053198;28;20291;-69
2022/03/23 07:00:52;;;;;;;6.00;5.40;;;15.70;43.70;;;;;;5052770;28;20698;-69
2022/03/23 07:03:19;;;;;;;6.13;5.55;;;16.40;39.50;;;;;;5052962;28;20220;-69
2022/03/23 07:05:46;;;;;;;7.85;5.70;;;17.00;37.80;;;;;;5056232;28;20243;-69
2022/03/23 07:10:58;;;;;;;10.00;6.55;;;18.10;34.00;;;;;;5056429;28;20555;-70
2022/03/23 07:13:25;;;;;;;9.57;6.78;;;18.50;33.30;;;;;;5056428;28;20228;-70
2022/03/23 07:15:52;;;;;;;5.60;5.10;;;19.00;33.00;;;;;;5056220;28;20200;-70
2022/03/23 07:18:19;;;;;;;5.85;5.35;;;19.60;32.00;;;;;;5056126;28;20697;-70
2022/03/23 07:20:46;;;;;;;6.13;5.53;;;20.00;32.80;;;;;;5056431;28;20235;-72
2022/03/23 07:23:12;;;;;;;5.78;5.18;;;20.40;31.10;;;;;;5056574;28;20215;-71
2022/03/23 07:25:39;;;;;;;6.13;5.53;;;20.80;28.20;;;;;;5056469;28;20287;-71
2022/03/23 07:28:08;;;;;;;6.18;5.57;;;21.10;27.40;;;;;;5056650;28;20255;-71
2022/03/23 07:30:36;;;;;;;7.25;6.32;;;21.50;26.90;;;;;;5056610;28;20290;-70
2022/03/23 07:33:03;;;;;;;10.52;5.75;;;21.80;27.40;;;;;;5056711;28;20297;-71
2022/03/23 07:35:30;;;;;;;8.27;5.65;;;22.10;29.40;;;;;;5056335;28;20251;-70
2022/03/23 07:37:57;;;;;;;5.95;5.43;;;22.40;29.80;;;;;;5056227;28;20206;-71
2022/03/23 07:40:24;;;;;;;6.45;5.85;;;22.70;28.90;;;;;;5055878;28;20659;-70
2022/03/23 07:42:50;;;;;;;6.32;5.53;;;22.40;27.30;;;;;;5055532;28;20593;-71
2022/03/23 07:45:19;;;;;;;8.32;6.25;;;22.40;25.70;;;;;;5056188;28;20184;-72
2022/03/23 07:47:46;;;;;;;11.07;7.00;;;22.80;25.40;;;;;;5055492;28;20635;-71
2022/03/23 07:50:13;;;;;;;10.65;7.35;;;23.10;24.80;;;;;;5056013;28;20204;-71
2022/03/23 07:52:40;;;;;;;6.53;5.93;;;23.10;24.80;;;;;;5055863;28;20220;-71
2022/03/23 07:55:07;;;;;;;7.70;6.78;;;23.40;25.30;;;;;;5055424;28;20210;-71
2022/03/23 07:57:34;;;;;;;11.73;6.30;;;23.80;24.90;;;;;;5055727;28;20200;-71
2022/03/23 08:00:01;;;;;;;8.73;6.13;;;24.20;25.20;;;;;;5055776;28;20200;-71
2022/03/23 08:02:29;;;;;;;6.50;5.15;;;24.50;26.30;;;;;;5055592;28;20587;-71
2022/03/23 08:04:56;;;;;;;6.47;5.75;;;24.80;30.10;;;;;;5055632;28;20306;-71
2022/03/23 08:07:23;;;;;;;7.50;5.88;;;24.70;28.00;;;;;;5055694;28;20200;-71
2022/03/23 08:09:50;;;;;;;9.38;6.55;;;24.90;24.60;;;;;;5055224;28;20706;-71
2022/03/23 08:12:17;;;;;;;6.78;6.10;;;24.90;24.60;;;;;;5055569;28;20200;-70
2022/03/23 08:14:46;;;;;;;5.47;5.05;;;24.80;24.80;;;;;;5054697;28;20204;-70
2022/03/23 08:17:13;;;;;;;5.22;4.72;;;24.90;24.70;;;;;;5055644;28;20207;-70
2022/03/23 08:19:41;;;;;;;4.95;4.55;;;25.10;24.80;;;;;;5056184;28;20592;-70
2022/03/23 08:22:09;;;;;;;5.00;4.50;;;25.10;25.00;;;;;;5055626;28;20318;-70
2022/03/23 08:24:35;;;;;;;5.68;5.15;;;25.00;25.60;;;;;;5056274;28;20204;-70
2022/03/23 08:27:03;;;;;;;4.57;4.18;;;25.00;27.30;;;;;;5056073;28;20299;-70
2022/03/23 08:29:30;;;;;;;4.63;4.18;;;25.10;27.10;;;;;;5056085;28;20310;-70
2022/03/23 08:31:57;;;;;;;7.35;5.38;;;25.10;25.90;;;;;;5055141;28;20200;-70
2022/03/23 08:34:24;;;;;;;5.28;4.53;;;24.80;25.40;;;;;;5054775;28;20215;-70
2022/03/23 08:36:52;;;;;;;7.28;6.53;;;24.10;25.30;;;;;;5055089;28;20300;-70
2022/03/23 08:39:19;;;;;;;9.73;6.55;;;23.00;25.50;;;;;;5054896;28;20239;-71
2022/03/23 08:41:45;;;;;;;7.18;6.00;;;21.50;26.70;;;;;;5055187;28;20312;-72
2022/03/23 08:44:12;;;;;;;8.30;6.60;;;20.00;26.90;;;;;;5055051;28;20582;-72
2022/03/23 08:46:39;;;;;;;9.65;6.45;;;18.60;28.20;;;;;;5055001;28;20208;-69
2022/03/23 08:49:06;;;;;;;8.50;6.85;;;17.10;29.30;;;;;;5055072;28;20616;-71
2022/03/23 08:51:33;;;;;;;9.60;6.82;;;15.90;31.20;;;;;;5054840;28;20199;-69
2022/03/23 08:54:01;;;;;;;7.93;5.80;;;14.90;32.00;;;;;;5055134;28;20320;-69
2022/03/23 08:56:28;;;;;;;6.45;5.47;;;14.20;32.60;;;;;;5054866;28;20296;-70
2022/03/23 08:58:55;;;;;;;6.63;5.63;;;13.60;33.60;;;;;;5054818;28;20287;-70
2022/03/23 09:01:21;;;;;;;6.78;6.07;;;13.20;34.80;;;;;;5054655;28;20197;-70
2022/03/23 09:03:49;;;;;;;8.65;6.20;;;12.80;35.30;;;;;;5054693;28;20274;-70
2022/03/23 09:06:16;;;;;;;7.70;6.07;;;12.50;35.70;;;;;;5054529;28;20204;-71
2022/03/23 09:08:43;;;;;;;10.63;6.72;;;12.40;36.60;;;;;;5054447;28;20287;-71
2022/03/23 09:11:12;;;;;;;8.10;6.55;;;12.30;36.80;;;;;;5054350;28;20205;-71
2022/03/23 09:13:39;;;;;;;7.82;6.00;;;12.30;37.10;;;;;;5054115;28;20236;-71
2022/03/23 09:16:06;;;;;;;6.88;6.18;;;12.30;37.40;;;;;;5054341;28;20219;-71
2022/03/23 09:18:32;;;;;;;7.40;6.45;;;12.30;37.40;;;;;;5054256;28;20211;-71
2022/03/23 09:20:59;;;;;;;6.55;5.40;;;12.50;37.50;;;;;;5054262;28;20196;-71
2022/03/23 09:23:26;;;;;;;7.35;6.05;;;12.50;37.40;;;;;;5054038;28;20252;-71
2022/03/23 09:25:53;;;;;;;6.90;5.78;;;12.60;37.20;;;;;;5053865;28;20752;-72
2022/03/23 09:28:22;;;;;;;6.10;5.18;;;12.80;37.20;;;;;;5053152;28;20208;-71
2022/03/23 09:30:49;;;;;;;7.70;5.20;;;12.90;36.90;;;;;;5054180;28;20250;-71
2022/03/23 09:33:16;;;;;;;6.03;4.82;;;13.00;36.90;;;;;;5054243;28;20216;-71
2022/03/23 09:35:43;;;;;;;6.28;5.10;;;13.10;36.60;;;;;;5054247;28;20201;-71
2022/03/23 09:38:11;;;;;;;7.82;5.32;;;13.20;36.00;;;;;;5055256;28;20283;-73
2022/03/23 09:40:39;;;;;;;5.47;4.97;;;13.30;35.20;;;;;;5055661;28;20231;-72
2022/03/23 09:43:09;;;;;;;5.93;5.43;;;13.40;34.40;;;;;;5055786;28;20311;-71
2022/03/23 09:45:47;;;;;;;6.10;5.47;;;13.50;33.80;;;;;;5065732;28;20205;-71
2022/03/23 09:48:16;;;;;;;9.35;7.25;;;13.50;32.60;;;;;;5064660;28;20181;-70
2022/03/23 09:50:46;;;;;;;8.18;6.55;;;13.60;32.00;;;;;;5057993;28;20204;-68
2022/03/23 09:53:13;;;;;;;6.35;5.75;;;13.60;32.00;;;;;;5061412;28;20220;-69
2022/03/23 09:55:42;;;;;;;6.57;5.70;;;13.70;31.70;;;;;;5058947;28;20679;-68
2022/03/23 09:58:09;;;;;;;5.90;5.30;;;13.80;31.60;;;;;;5053687;28;20628;-70
2022/03/23 10:00:39;;;;;;;5.30;4.80;;;13.90;32.10;;;;;;5054087;28;20224;-71
2022/03/23 10:03:46;;;;;;;6.88;5.65;;;14.00;32.40;;;;;;5054139;28;20232;-70
2022/03/23 10:06:54;;;;;;;7.78;6.03;;;14.00;31.40;;;;;;5028558;28;20559;-68
2022/03/23 10:10:13;;;;;;;5.40;4.90;;;14.00;31.00;;;;;;5053583;28;20189;-68
2022/03/23 10:13:17;;;;;;;5.93;5.32;;;14.10;30.80;;;;;;5053624;28;20217;-69
2022/03/23 10:16:41;;;;;;;6.22;4.72;;;14.10;31.30;;;;;;5053209;28;20219;-68
2022/03/23 10:19:08;;;;;;;5.38;4.53;;;14.10;29.50;;;;;;5053653;28;20279;-68
2022/03/23 10:21:36;;;;;;;6.90;6.20;;;14.20;30.00;;;;;;5053734;28;20191;-67
2022/03/23 10:24:33;;;;;;;8.05;6.97;;;14.30;31.10;;;;;;5053841;28;20220;-68
2022/03/23 10:27:05;;;;;;;6.85;6.15;;;14.30;31.20;;;;;;5053646;28;20197;-68
2022/03/23 10:29:32;;;;;;;6.45;5.85;;;14.30;30.30;;;;;;5053399;28;20185;-66
2022/03/23 10:32:08;;;;;;;7.82;5.93;;;14.40;30.90;;;;;;5053141;28;20559;-66
2022/03/23 10:34:45;;;;;;;5.82;4.88;;;14.50;32.50;;;;;;5052645;28;20185;-69
2022/03/23 10:37:13;;;;;;;5.63;5.10;;;14.60;30.90;;;;;;5053204;28;20184;-71
2022/03/23 10:39:40;;;;;;;6.10;5.32;;;14.60;29.90;;;;;;5058459;28;20196;-70
2022/03/23 10:42:10;;;;;;;6.05;5.45;;;14.60;30.10;;;;;;5061842;28;20216;-70
2022/03/23 10:44:38;;;;;;;5.32;4.90;;;14.60;31.10;;;;;;5062187;28;20185;-70
2022/03/23 10:47:07;;;;;;;5.00;4.50;;;14.70;32.30;;;;;;5062463;28;20200;-70
2022/03/23 10:49:37;;;;;;;3.80;3.50;;;14.80;32.30;;;;;;5062387;28;20631;-71
2022/03/23 10:52:14;;;;;;;4.45;4.10;;;14.90;32.00;;;;;;5061426;28;20203;-70
2022/03/23 10:54:53;;;;;;;5.68;5.25;;;15.00;30.60;;;;;;5063100;28;20192;-70
2022/03/23 10:57:20;;;;;;;5.38;4.88;;;15.00;30.70;;;;;;5062190;28;20181;-70
2022/03/23 10:59:48;;;;;;;9.27;6.20;;;15.00;31.00;;;;;;5062640;28;20192;-71
2022/03/23 11:02:18;;;;;;;6.93;5.90;;;15.00;30.40;;;;;;5061843;28;20221;-69
2022/03/23 11:04:51;;;;;;;6.32;5.68;;;15.00;30.00;;;;;;5060622;28;20222;-68
2022/03/23 11:07:26;;;;;;;5.63;5.20;;;14.90;30.00;;;;;;5062894;28;20199;-68
2022/03/23 11:18:11;;;;;;;5.88;5.35;;;14.70;30.20;;;;;;5059765;28;20184;-73
2022/03/23 11:20:43;;;;;;;6.82;6.20;;;14.80;29.90;;;;;;5056660;28;20372;-72
2022/03/23 11:23:23;;;;;;;7.00;6.30;;;14.80;29.40;;;;;;5056509;28;20582;-72
2022/03/23 11:25:50;;;;;;;5.90;5.40;;;14.80;29.30;;;;;;5056311;28;20230;-73
2022/03/23 11:28:18;;;;;;;6.82;5.50;;;14.80;29.40;;;;;;5056219;28;20238;-74
2022/03/23 11:30:46;;;;;;;6.85;6.15;;;14.80;29.80;;;;;;5055949;28;20202;-72
2022/03/23 11:33:17;;;;;;;7.97;7.18;;;14.80;29.70;;;;;;5055905;28;20751;-71
2022/03/23 11:35:48;;;;;;;6.80;6.03;;;14.80;29.70;;;;;;5056200;28;20192;-71
2022/03/23 11:38:16;;;;;;;5.60;5.10;;;14.80;29.70;;;;;;5055893;28;20185;-71
2022/03/23 11:40:44;;;;;;;4.75;4.30;;;14.90;29.70;;;;;;5056235;28;20232;-71
2022/03/23 11:43:12;;;;;;;5.60;5.10;;;15.00;30.10;;;;;;5055602;28;20228;-71
2022/03/23 11:45:41;;;;;;;5.70;5.20;;;15.00;29.40;;;;;;5055686;28;20668;-72
2022/03/23 11:48:19;;;;;;;6.30;5.70;;;15.00;29.10;;;;;;5056200;28;20211;-72
2022/03/23 11:50:58;;;;;;;5.93;5.43;;;15.00;29.00;;;;;;5055187;28;20188;-71
2022/03/23 11:53:34;;;;;;;4.93;4.53;;;15.00;29.30;;;;;;5055813;28;20220;-71
2022/03/23 11:56:04;;;;;;;5.85;5.32;;;15.00;29.60;;;;;;5055896;28;20284;-72
2022/03/23 11:58:37;;;;;;;6.32;5.82;;;14.90;29.40;;;;;;5055802;28;20204;-71
2022/03/23 12:01:11;;;;;;;5.68;5.07;;;15.00;28.70;;;;;;5055787;28;20201;-71
2022/03/23 12:03:57;;;;;;;5.22;4.72;;;14.90;28.60;;;;;;5055307;28;20315;-72
2022/03/23 12:06:36;;;;;;;4.85;4.40;;;14.90;28.70;;;;;;5055753;28;20350;-71
2022/03/23 12:09:03;;;;;;;5.00;4.55;;;14.90;29.00;;;;;;5055977;28;20199;-71
2022/03/23 12:11:50;;;;;;;4.50;4.20;;;14.90;29.60;;;;;;5055214;28;20208;-71
2022/03/23 12:14:23;;;;;;;3.80;3.60;;;15.00;29.80;;;;;;5055091;28;20232;-70
2022/03/23 12:17:07;;;;;;;5.15;4.75;;;15.00;31.40;;;;;;5055872;28;20204;-71
2022/03/23 12:20:13;;;;;;;4.75;4.15;;;15.10;29.50;;;;;;5056187;28;20189;-71
2022/03/23 12:23:10;;;;;;;4.90;4.50;;;15.20;29.60;;;;;;5050621;28;20224;-70
2022/03/23 12:25:48;;;;;;;4.15;3.78;;;15.20;29.00;;;;;;5056170;28;20212;-71
2022/03/23 12:28:24;;;;;;;4.97;4.57;;;15.20;29.10;;;;;;5056182;28;20184;-71
2022/03/23 12:31:10;;;;;;;4.85;4.30;;;15.30;29.10;;;;;;5056230;28;20191;-70
2022/03/23 12:33:57;;;;;;;4.13;3.83;;;15.30;28.80;;;;;;5056020;28;20216;-72
2022/03/23 12:36:56;;;;;;;4.20;3.83;;;15.30;29.10;;;;;;5055350;28;20218;-72
2022/03/23 12:39:26;;;;;;;4.22;3.92;;;15.40;29.00;;;;;;5055910;28;20204;-71
2022/03/23 12:41:55;;;;;;;4.63;4.22;;;15.40;29.30;;;;;;5056826;28;20200;-71
2022/03/23 12:44:31;;;;;;;3.70;3.50;;;15.40;28.70;;;;;;5057246;28;20311;-72
2022/03/23 12:47:04;;;;;;;6.07;4.90;;;15.40;28.70;;;;;;5057523;28;20226;-71
2022/03/23 12:58:05;;;;;;;3.40;3.20;;;15.40;26.90;;;;;;5056597;28;20246;-71
2022/03/23 13:00:34;;;;;;;2.80;2.70;;;15.30;26.80;;;;;;5056229;28;20222;-69
2022/03/23 13:03:47;;;;;;;3.45;3.25;;;15.20;27.10;;;;;;5054880;28;20543;-70
2022/03/23 13:06:15;;;;;;;4.50;4.10;;;15.30;28.10;;;;;;5055810;28;20212;-71
2022/03/23 13:08:47;;;;;;;3.30;3.15;;;15.30;28.30;;;;;;5055311;28;20204;-71
2022/03/23 13:11:15;;;;;;;3.30;3.10;;;15.40;29.00;;;;;;5055489;28;20216;-70
2022/03/23 13:13:46;;;;;;;4.65;3.25;;;15.40;28.80;;;;;;5055238;28;20250;-71
2022/03/23 13:16:15;;;;;;;3.10;3.00;;;15.40;28.60;;;;;;5055530;28;20193;-72
2022/03/23 13:18:43;;;;;;;3.35;3.20;;;15.40;28.40;;;;;;5055529;28;20201;-72
2022/03/23 13:21:11;;;;;;;3.50;3.20;;;15.50;28.70;;;;;;5055088;28;20201;-73
2022/03/23 13:23:41;;;;;;;2.90;2.80;;;15.50;28.10;;;;;;5054393;28;20518;-73
2022/03/23 13:26:09;;;;;;;3.00;2.83;;;15.50;14.00;;;;;;5055535;28;20208;-72
2022/03/23 13:28:38;;;;;;;2.70;2.50;;;15.60;13.80;;;;;;5054930;28;20554;-72
2022/03/23 13:31:08;;;;;;;2.40;2.30;;;15.60;14.20;;;;;;5055365;28;20205;-73
2022/03/23 13:33:36;;;;;;;2.10;2.00;;;15.60;14.00;;;;;;5055058;28;20757;-72
2022/03/23 13:36:04;;;;;;;2.25;2.15;;;15.60;13.60;;;;;;5055474;28;20200;-72
2022/03/23 13:38:35;;;;;;;2.00;1.90;;;15.60;13.70;;;;;;5055294;28;20228;-73
2022/03/23 13:43:51;;;;;;;1.83;1.80;;;15.60;12.50;;;;;;5054291;28;20223;-73
2022/03/23 13:46:19;;;;;;;2.20;2.17;;;15.50;12.90;;;;;;5054015;28;20268;-73
2022/03/23 13:48:58;;;;;;;4.03;3.72;;;15.60;12.50;;;;;;5053809;28;20276;-73
2022/03/23 13:51:34;;;;;;;3.63;3.25;;;15.60;12.40;;;;;;5054049;28;20193;-74
2022/03/23 13:54:04;;;;;;;3.85;3.55;;;15.60;11.90;;;;;;5053826;28;20212;-74
2022/03/23 13:56:34;;;;;;;5.00;3.70;;;15.70;11.30;;;;;;5054036;28;20212;-72
2022/03/23 13:59:03;;;;;;;3.30;3.10;;;15.70;10.80;;;;;;5053452;28;20251;-72
2022/03/23 14:01:32;;;;;;;3.45;3.25;;;15.70;10.90;;;;;;5054341;28;20726;-73
2022/03/23 14:04:04;;;;;;;3.60;3.40;;;15.60;11.10;;;;;;5053898;28;20628;-73
2022/03/23 14:06:41;;;;;;;4.28;3.90;;;15.70;11.00;;;;;;5053749;28;20192;-73
2022/03/23 14:09:09;;;;;;;3.40;3.20;;;15.70;10.60;;;;;;5053742;28;20218;-73
2022/03/23 14:12:01;;;;;;;2.70;2.60;;;15.70;10.50;;;;;;5053965;28;20223;-74
2022/03/23 14:14:31;;;;;;;2.70;2.60;;;15.70;10.50;;;;;;5053269;28;20200;-73
2022/03/23 14:17:08;;;;;;;2.60;2.50;;;15.70;10.60;;;;;;5053672;28;20204;-72
2022/03/23 14:19:36;;;;;;;2.95;2.75;;;15.70;10.60;;;;;;5053667;28;20184;-72
2022/03/23 14:22:05;;;;;;;3.72;3.42;;;15.70;10.40;;;;;;5053419;28;20207;-72
2022/03/23 14:24:34;;;;;;;3.13;2.92;;;15.60;10.10;;;;;;5053359;28;20220;-72
2022/03/23 14:27:26;;;;;;;2.90;2.78;;;15.60;10.20;;;;;;5053370;28;20200;-74
2022/03/23 14:30:15;;;;;;;3.65;3.35;;;15.60;10.60;;;;;;5038849;28;20200;-72
2022/03/23 14:32:52;;;;;;;3.90;3.60;;;15.60;11.40;;;;;;5053688;28;20224;-74
2022/03/23 14:35:22;;;;;;;4.35;3.95;;;15.60;11.50;;;;;;5053697;28;20282;-74
2022/03/23 14:37:51;;;;;;;3.15;2.95;;;15.50;11.40;;;;;;5053385;28;20180;-73
2022/03/23 14:40:24;;;;;;;3.67;3.40;;;15.50;11.80;;;;;;5053168;28;20222;-74
2022/03/23 14:42:52;;;;;;;3.58;3.38;;;15.50;12.10;;;;;;5053300;28;20225;-72
2022/03/23 14:45:33;;;;;;;2.90;2.70;;;15.50;12.30;;;;;;5052601;28;20607;-71
2022/03/23 14:48:13;;;;;;;2.30;2.20;;;15.50;12.60;;;;;;5052840;28;20610;-72
2022/03/23 14:50:40;;;;;;;1.98;1.98;;;15.40;12.40;;;;;;5053212;28;20189;-72
2022/03/23 14:53:07;;;;;;;3.67;3.30;;;15.40;12.40;;;;;;5053497;28;20307;-71
2022/03/23 14:55:33;;;;;;;3.42;3.22;;;15.40;11.50;;;;;;5053624;28;20296;-71
2022/03/23 14:58:00;;;;;;;2.65;2.55;;;15.40;11.50;;;;;;5053378;28;20293;-72
2022/03/23 15:00:27;;;;;;;2.72;2.63;;;15.40;11.60;;;;;;5053029;28;20292;-72
2022/03/23 15:02:54;;;;;;;2.67;2.58;;;15.30;11.60;;;;;;5052603;28;20307;-71
2022/03/23 15:13:35;;;;;;;3.83;3.58;;;15.30;12.30;;;;;;5052740;28;20219;-71
2022/03/23 15:16:01;;;;;;;4.13;3.83;;;15.40;12.40;;;;;;5052770;28;20195;-71
2022/03/23 15:18:29;;;;;;;3.53;3.33;;;15.40;12.20;;;;;;5052772;28;20225;-71
2022/03/23 15:20:59;;;;;;;3.88;3.58;;;15.40;11.40;;;;;;5055549;28;20188;-71
2022/03/23 15:23:29;;;;;;;4.63;4.15;;;15.40;11.00;;;;;;5057143;28;20231;-70
2022/03/23 15:25:57;;;;;;;3.40;3.20;;;15.40;11.40;;;;;;5059564;28;20216;-71
2022/03/23 15:28:24;;;;;;;3.80;3.60;;;15.30;11.80;;;;;;5059965;28;20283;-70
2022/03/23 15:30:51;;;;;;;3.08;2.95;;;15.30;12.30;;;;;;5060835;28;20743;-69
2022/03/23 15:33:20;;;;;;;3.50;3.30;;;15.20;12.60;;;;;;5060104;28;20231;-69
2022/03/23 15:35:47;;;;;;;3.30;3.10;;;15.20;13.00;;;;;;5059223;28;20201;-70
2022/03/23 15:38:17;;;;;;;3.70;3.50;;;15.10;12.90;;;;;;5060729;28;20188;-71
2022/03/23 15:40:44;;;;;;;4.00;3.70;;;15.00;13.60;;;;;;5059718;28;20204;-71
2022/03/23 15:43:12;;;;;;;3.53;3.33;;;15.00;13.10;;;;;;5059750;28;20225;-70
2022/03/23 15:45:40;;;;;;;2.80;2.70;;;14.90;13.00;;;;;;5060358;28;20204;-70
2022/03/23 15:48:08;;;;;;;2.88;2.70;;;14.90;13.60;;;;;;5059650;28;20239;-70
2022/03/23 15:50:35;;;;;;;3.33;2.80;;;14.80;14.10;;;;;;5057736;28;20277;-71
2022/03/23 15:53:04;;;;;;;2.45;2.33;;;14.70;14.20;;;;;;5058224;28;20239;-70
2022/03/23 15:55:33;;;;;;;2.92;2.83;;;14.60;14.10;;;;;;5060327;28;20192;-71
2022/03/23 15:58:01;;;;;;;2.88;2.60;;;14.50;14.60;;;;;;5059344;28;20204;-70
2022/03/23 16:00:29;;;;;;;2.53;2.42;;;14.40;15.20;;;;;;5062334;28;20258;-71
2022/03/23 16:02:56;;;;;;;3.28;3.00;;;14.30;15.90;;;;;;5060773;28;20220;-70
2022/03/23 16:05:24;;;;;;;2.65;2.45;;;14.20;15.90;;;;;;5061027;28;20248;-71
2022/03/23 16:07:51;;;;;;;2.35;2.17;;;14.00;16.40;;;;;;5060610;28;20490;-71
2022/03/23 16:10:19;;;;;;;2.63;2.50;;;13.90;17.40;;;;;;5059102;28;20660;-70
2022/03/23 16:12:47;;;;;;;2.38;2.28;;;13.70;17.40;;;;;;5057623;28;20228;-70
2022/03/23 16:15:14;;;;;;;2.75;2.58;;;13.60;17.70;;;;;;5059543;28;20235;-72
2022/03/23 16:17:41;;;;;;;2.75;2.55;;;13.50;17.90;;;;;;5059093;28;20204;-72
2022/03/23 16:20:10;;;;;;;2.90;2.70;;;13.40;17.10;;;;;;5058374;28;20623;-71
2022/03/23 16:22:38;;;;;;;2.42;2.22;;;13.40;17.80;;;;;;5058015;28;20217;-71
2022/03/23 16:25:07;;;;;;;2.13;2.03;;;13.30;18.80;;;;;;5057266;28;20312;-71
2022/03/23 16:27:35;;;;;;;2.05;1.95;;;13.10;19.30;;;;;;5062074;28;20207;-71
2022/03/23 16:30:04;;;;;;;2.15;2.05;;;12.90;19.60;;;;;;5060441;28;20219;-71
2022/03/23 16:32:31;;;;;;;1.80;1.80;;;12.80;20.10;;;;;;5057363;28;20217;-70
2022/03/23 16:34:58;;;;;;;2.85;2.45;;;12.70;20.10;;;;;;5056779;28;20284;-70
2022/03/23 16:37:27;;;;;;;2.50;2.40;;;12.50;20.40;;;;;;5062442;28;20248;-71
2022/03/23 16:39:54;;;;;;;2.13;2.03;;;12.40;20.80;;;;;;5062814;28;20220;-71
2022/03/23 16:42:23;;;;;;;2.08;1.98;;;12.30;21.00;;;;;;5062213;28;20200;-70
2022/03/23 16:44:50;;;;;;;2.03;1.92;;;12.20;21.40;;;;;;5061489;28;20279;-71
2022/03/23 16:47:19;;;;;;;1.77;1.77;;;12.00;21.70;;;;;;5061912;28;20205;-71
2022/03/23 16:49:47;;;;;;;2.10;2.00;;;11.90;22.50;;;;;;5061237;28;20208;-71
2022/03/23 16:52:15;;;;;;;2.20;2.10;;;11.80;22.60;;;;;;5060107;28;20200;-69
2022/03/23 16:54:42;;;;;;;2.08;1.98;;;11.70;22.80;;;;;;5060696;28;20255;-71
2022/03/23 16:57:12;;;;;;;2.13;2.03;;;11.60;23.40;;;;;;5060214;28;20200;-71
2022/03/23 16:59:40;;;;;;;1.98;1.88;;;11.40;23.70;;;;;;5060379;28;20211;-71
2022/03/23 17:02:08;;;;;;;2.00;2.00;;;11.40;23.60;;;;;;5060919;28;20341;-73
2022/03/23 17:12:52;;;;;;;2.20;2.10;;;10.90;24.20;;;;;;5059788;28;20238;-71
2022/03/23 17:15:19;;;;;;;2.20;2.10;;;10.80;24.40;;;;;;5059732;28;20208;-71
2022/03/23 17:17:47;;;;;;;1.63;1.63;;;10.70;24.50;;;;;;5056958;28;20231;-72
2022/03/23 17:20:16;;;;;;;1.95;1.88;;;10.60;24.90;;;;;;5054414;28;20205;-71
2022/03/23 17:22:43;;;;;;;2.00;1.90;;;10.50;25.10;;;;;;5054440;28;20251;-70